createdAt,value
2023-05-16T00:00:18.068Z,19.6
2023-05-16T00:10:17.614Z,19.3
2023-05-16T00:20:17.794Z,19.2
2023-05-16T00:30:18.353Z,19.3
2023-05-16T00:40:18.279Z,19.1
2023-05-16T00:50:17.910Z,19.2
2023-05-16T01:00:18.127Z,19.6
2023-05-16T01:10:18.374Z,19.1
2023-05-16T01:20:18.324Z,19.3
2023-05-16T01:30:18.232Z,19.1
2023-05-16T01:40:17.208Z,19.1
2023-05-16T01:50:18.175Z,19.2
2023-05-16T02:00:17.754Z,19.2
2023-05-16T02:10:17.630Z,19.2
2023-05-16T02:20:17.695Z,19.3
2023-05-16T02:30:17.909Z,19.1
2023-05-16T02:40:16.985Z,19.1
2023-05-16T02:50:17.102Z,19
2023-05-16T03:10:07.769Z,19.1
2023-05-16T03:20:07.181Z,19.2
2023-05-16T03:30:07.837Z,19.2
2023-05-16T03:40:07.285Z,19.2
2023-05-16T03:50:07.243Z,19.2
2023-05-16T04:00:07.384Z,19.2
2023-05-16T04:10:09.225Z,19.1
2023-05-16T04:20:10.721Z,19.1
2023-05-16T04:30:12.510Z,19.1
2023-05-16T04:40:13.820Z,19.2
2023-05-16T04:50:15.606Z,19.1
2023-05-16T05:00:15.931Z,19.1
2023-05-16T05:10:15.942Z,19.1
2023-05-16T05:20:15.897Z,19.1
2023-05-16T05:30:15.050Z,19.1
2023-05-16T05:40:15.447Z,19.4
2023-05-16T05:50:15.226Z,19.2
2023-05-16T06:00:16.007Z,19.6
2023-05-16T06:10:16.788Z,19.4
2023-05-16T06:20:16.823Z,19.3
2023-05-16T06:30:16.400Z,19.2
2023-05-16T06:40:15.569Z,19.2
2023-05-16T06:50:15.586Z,19.2
2023-05-16T07:00:14.986Z,19.3
2023-05-16T07:10:14.504Z,19.2
2023-05-16T07:20:14.628Z,19.2
2023-05-16T07:30:15.692Z,19.2
2023-05-16T07:40:14.587Z,19.3
2023-05-16T07:50:13.999Z,19.3
2023-05-16T08:00:14.690Z,19.3
2023-05-16T08:10:15.612Z,19.3
2023-05-16T08:20:18.208Z,19.3
2023-05-16T08:30:22.772Z,19.8
2023-05-16T08:40:28.011Z,20.1
2023-05-16T08:50:40.653Z,19.1
2023-05-16T09:10:16.884Z,20
2023-05-16T09:20:22.150Z,20.2
2023-05-16T09:30:28.153Z,20.2
2023-05-16T09:40:32.125Z,20.4
2023-05-16T09:50:38.903Z,19.9
2023-05-16T10:00:47.217Z,20.3
2023-05-16T10:11:03.173Z,20.6
2023-05-16T10:21:18.022Z,20.4
2023-05-16T10:31:28.818Z,20.5
2023-05-16T10:41:41.474Z,20.5
2023-05-16T10:51:58.843Z,20.6
2023-05-16T11:02:13.712Z,21
2023-05-16T11:12:24.369Z,20.2
2023-05-16T11:22:33.320Z,20.8
2023-05-16T11:32:39.942Z,20.6
2023-05-16T11:42:51.140Z,20.7
2023-05-16T11:52:59.227Z,20.6
2023-05-16T12:03:15.960Z,20.2
2023-05-16T12:13:33.335Z,20.7
2023-05-16T12:23:48.203Z,20.8
2023-05-16T12:33:59.999Z,21
2023-05-16T12:44:00.854Z,20.8
2023-05-16T12:54:09.583Z,21.1
2023-05-16T13:04:03.093Z,20.8
2023-05-16T13:14:04.218Z,21
2023-05-16T13:24:05.676Z,20.7
2023-05-16T13:34:07.115Z,21
2023-05-16T13:44:08.473Z,20.8
2023-05-16T13:54:10.827Z,20.8
2023-05-16T14:04:11.115Z,20.7
2023-05-16T14:14:11.386Z,20.6
2023-05-16T14:24:11.491Z,21
2023-05-16T14:34:10.852Z,20.8
2023-05-16T14:44:10.933Z,20.6
2023-05-16T14:54:11.419Z,20.6
2023-05-16T15:10:09.320Z,20.5
2023-05-16T15:20:09.535Z,20.8
2023-05-16T15:30:09.397Z,20.6
2023-05-16T15:40:09.238Z,20.5
2023-05-16T15:50:09.049Z,20.5
2023-05-16T16:00:09.422Z,20.5
2023-05-16T16:10:11.145Z,20.5
2023-05-16T16:20:12.274Z,20.4
2023-05-16T16:30:14.276Z,20.4
2023-05-16T16:40:16.028Z,20.4
2023-05-16T16:50:17.265Z,20.3
2023-05-16T17:00:17.526Z,20.3
2023-05-16T17:10:17.205Z,20.2
2023-05-16T17:20:17.270Z,20.4
2023-05-16T17:30:18.502Z,20.1
2023-05-16T17:40:17.487Z,20.1
2023-05-16T17:50:17.182Z,20.1
2023-05-16T18:00:16.495Z,20.1
2023-05-16T18:10:16.088Z,20.1
2023-05-16T18:20:15.242Z,20.1
2023-05-16T18:30:15.636Z,20.1
2023-05-16T18:40:15.552Z,20.1
2023-05-16T18:50:15.696Z,20
2023-05-16T19:00:15.700Z,19.9
2023-05-16T19:10:15.745Z,20.3
2023-05-16T19:20:15.024Z,19.8
2023-05-16T19:30:15.770Z,19.9
2023-05-16T19:40:17.206Z,19.8
2023-05-16T19:50:15.800Z,19.9
2023-05-16T20:00:15.609Z,19.9
2023-05-16T20:10:15.031Z,19.8
2023-05-16T20:20:14.418Z,19.9
2023-05-16T20:30:14.932Z,19.8
2023-05-16T20:40:15.754Z,20.2
2023-05-16T20:50:15.881Z,20.3
2023-05-16T21:10:08.417Z,19.8
2023-05-16T21:20:08.853Z,19.9
2023-05-16T21:30:09.474Z,19.9
2023-05-16T21:40:09.638Z,19.8
2023-05-16T21:50:10.353Z,20.1
2023-05-16T22:00:10.595Z,20.3
2023-05-16T22:10:11.762Z,19.9
2023-05-16T22:20:13.490Z,20.4
2023-05-16T22:30:15.930Z,19.8
2023-05-16T22:40:17.395Z,19.8
2023-05-16T22:50:19.934Z,20.2
2023-05-16T23:00:20.161Z,19.9
2023-05-16T23:10:20.221Z,19.8
2023-05-16T23:20:19.984Z,19.9
2023-05-16T23:30:20.495Z,20.1
2023-05-16T23:40:19.921Z,19.8
2023-05-16T23:50:20.151Z,19.8
